createdAt,value
2022-11-10T00:00:10.274Z,20.78
2022-11-10T00:01:30.613Z,20.57
2022-11-10T00:02:51.125Z,20.77
2022-11-10T00:04:11.427Z,20.77
2022-11-10T00:05:32.325Z,20.76
2022-11-10T00:06:52.553Z,20.77
2022-11-10T00:08:12.827Z,20.77
2022-11-10T00:09:33.025Z,20.69
2022-11-10T00:10:59.377Z,20.76
2022-11-10T00:12:20.409Z,20.75
2022-11-10T00:14:00.377Z,20.76
2022-11-10T00:15:39.043Z,20.78
2022-11-10T00:17:02.128Z,20.80
2022-11-10T00:18:22.574Z,20.77
2022-11-10T00:19:42.723Z,20.76
2022-11-10T00:21:08.233Z,20.73
2022-11-10T00:22:28.229Z,20.74
2022-11-10T00:23:48.630Z,20.73
2022-11-10T00:25:10.237Z,20.72
2022-11-10T00:26:30.793Z,20.72
2022-11-10T00:27:51.175Z,20.72
2022-11-10T00:29:11.598Z,20.71
2022-11-10T00:30:31.702Z,20.60
2022-11-10T00:31:51.946Z,20.70
2022-11-10T00:33:12.140Z,20.70
2022-11-10T00:34:32.384Z,20.69
2022-11-10T00:35:52.887Z,20.56
2022-11-10T00:37:13.255Z,20.66
2022-11-10T00:38:34.005Z,20.68
2022-11-10T00:39:54.275Z,20.55
2022-11-10T00:41:14.562Z,20.69
2022-11-10T00:42:34.753Z,20.69
2022-11-10T00:43:54.998Z,20.68
2022-11-10T00:45:15.235Z,20.63
2022-11-10T00:46:35.693Z,20.67
2022-11-10T00:47:56.097Z,20.66
2022-11-10T00:49:16.400Z,20.63
2022-11-10T00:50:36.898Z,20.66
2022-11-10T00:51:57.206Z,20.65
2022-11-10T00:53:17.809Z,20.59
2022-11-10T00:54:38.138Z,20.66
2022-11-10T00:55:58.496Z,20.52
2022-11-10T00:57:18.720Z,20.58
2022-11-10T00:58:38.788Z,20.65
2022-11-10T00:59:59.063Z,20.61
2022-11-10T01:01:21.060Z,20.64
2022-11-10T01:02:41.631Z,20.64
2022-11-10T01:04:02.041Z,20.60
2022-11-10T01:05:22.482Z,20.64
2022-11-10T01:06:43.777Z,20.64
2022-11-10T01:08:04.774Z,20.64
2022-11-10T01:09:24.955Z,20.64
2022-11-10T01:10:45.225Z,20.63
2022-11-10T01:12:05.733Z,20.63
2022-11-10T01:13:26.085Z,20.62
2022-11-10T01:14:48.472Z,20.63
2022-11-10T01:16:11.788Z,20.63
2022-11-10T01:17:32.278Z,20.64
2022-11-10T01:18:54.983Z,20.57
2022-11-10T01:20:15.386Z,20.61
2022-11-10T01:21:35.678Z,20.58
2022-11-10T01:22:56.086Z,20.64
2022-11-10T01:24:19.790Z,20.62
2022-11-10T01:25:39.757Z,20.64
2022-11-10T01:27:00.013Z,20.64
2022-11-10T01:28:20.462Z,20.63
2022-11-10T01:29:40.927Z,20.63
2022-11-10T01:31:09.737Z,20.61
2022-11-10T01:32:30.044Z,20.64
2022-11-10T01:33:50.242Z,20.63
2022-11-10T01:35:10.616Z,20.60
2022-11-10T01:36:31.389Z,20.58
2022-11-10T01:37:52.978Z,20.62
2022-11-10T01:39:13.213Z,20.62
2022-11-10T01:40:33.557Z,20.58
2022-11-10T01:41:53.800Z,20.61
2022-11-10T01:43:14.642Z,20.61
2022-11-10T01:44:35.518Z,20.57
2022-11-10T01:46:09.021Z,20.61
2022-11-10T01:47:29.567Z,20.63
2022-11-10T01:48:55.090Z,20.60
2022-11-10T01:50:15.376Z,20.61
2022-11-10T01:51:37.872Z,20.60
2022-11-10T01:53:02.415Z,20.54
2022-11-10T01:54:26.536Z,20.61
2022-11-10T01:55:48.765Z,20.55
2022-11-10T01:57:12.555Z,20.53
2022-11-10T01:58:39.980Z,20.60
2022-11-10T02:00:01.630Z,20.55
2022-11-10T02:01:23.186Z,20.61
2022-11-10T02:03:03.685Z,20.62
2022-11-10T02:04:24.729Z,20.64
2022-11-10T02:05:45.474Z,20.61
2022-11-10T02:07:06.337Z,20.59
2022-11-10T02:08:27.926Z,20.59
2022-11-10T02:09:49.323Z,20.61
2022-11-10T02:11:09.881Z,20.60
2022-11-10T02:12:37.877Z,20.58
2022-11-10T02:13:58.115Z,20.60
2022-11-10T02:15:19.262Z,20.58
2022-11-10T02:16:40.212Z,20.58
2022-11-10T02:18:00.838Z,20.57
2022-11-10T02:19:24.761Z,20.56
2022-11-10T02:20:46.692Z,20.57
2022-11-10T02:22:06.902Z,20.59
2022-11-10T02:23:30.186Z,20.56
2022-11-10T02:24:50.420Z,20.58
2022-11-10T02:26:11.022Z,20.52
2022-11-10T02:27:31.054Z,20.57
2022-11-10T02:28:51.330Z,20.56
2022-11-10T02:30:12.493Z,20.57
2022-11-10T02:31:32.594Z,20.57
2022-11-10T02:32:53.130Z,20.57
2022-11-10T02:34:13.319Z,20.57
2022-11-10T02:35:33.690Z,20.57
2022-11-10T02:36:53.917Z,20.56
2022-11-10T02:38:14.822Z,20.56
2022-11-10T02:39:34.787Z,20.50
2022-11-10T02:40:55.086Z,20.50
2022-11-10T02:42:15.424Z,20.56
2022-11-10T02:43:37.784Z,20.56
2022-11-10T02:44:58.408Z,20.57
2022-11-10T02:46:18.439Z,20.56
2022-11-10T02:47:39.021Z,20.57
2022-11-10T02:48:59.562Z,20.55
2022-11-10T02:50:20.108Z,20.55
2022-11-10T02:51:40.506Z,20.47
2022-11-10T02:53:00.863Z,20.54
2022-11-10T02:54:21.534Z,20.56
2022-11-10T02:55:42.341Z,20.55
2022-11-10T02:57:03.007Z,20.55
2022-11-10T02:58:23.154Z,20.55
2022-11-10T02:59:43.404Z,20.56
2022-11-10T03:01:06.200Z,20.46
2022-11-10T03:02:29.782Z,20.56
2022-11-10T03:03:52.395Z,20.57
2022-11-10T03:05:12.652Z,20.55
2022-11-10T03:06:33.356Z,20.47
2022-11-10T03:07:58.229Z,20.55
2022-11-10T03:09:18.326Z,20.56
2022-11-10T03:10:38.655Z,20.55
2022-11-10T03:11:58.726Z,20.51
2022-11-10T03:13:18.985Z,20.47
2022-11-10T03:14:39.599Z,20.56
2022-11-10T03:15:59.799Z,20.55
2022-11-10T03:17:20.521Z,20.55
2022-11-10T03:18:41.177Z,20.55
2022-11-10T03:20:01.169Z,20.54
2022-11-10T03:21:21.432Z,20.55
2022-11-10T03:22:41.725Z,20.55
2022-11-10T03:24:02.146Z,20.54
2022-11-10T03:25:22.397Z,20.54
2022-11-10T03:26:42.767Z,20.55
2022-11-10T03:28:03.057Z,20.54
2022-11-10T03:29:23.410Z,20.51
2022-11-10T03:30:44.647Z,20.52
2022-11-10T03:32:04.806Z,20.55
2022-11-10T03:33:25.565Z,20.51
2022-11-10T03:34:46.107Z,20.54
2022-11-10T03:36:06.602Z,20.54
2022-11-10T03:37:26.650Z,20.55
2022-11-10T03:38:47.054Z,20.53
2022-11-10T03:40:08.236Z,20.50
2022-11-10T03:41:28.247Z,20.54
2022-11-10T03:42:48.633Z,20.52
2022-11-10T03:44:09.021Z,20.54
2022-11-10T03:45:29.534Z,20.48
2022-11-10T03:46:51.758Z,20.55
2022-11-10T03:48:11.917Z,20.54
2022-11-10T03:49:32.240Z,20.55
2022-11-10T03:50:52.569Z,20.55
2022-11-10T03:52:12.929Z,20.54
2022-11-10T03:53:33.069Z,20.54
2022-11-10T03:54:53.580Z,20.55
2022-11-10T03:56:13.997Z,20.56
2022-11-10T03:57:34.513Z,20.55
2022-11-10T03:58:54.858Z,20.55
2022-11-10T04:00:15.680Z,20.56
2022-11-10T04:01:36.230Z,20.50
2022-11-10T04:02:56.227Z,20.56
2022-11-10T04:04:35.168Z,20.56
2022-11-10T04:06:14.219Z,20.60
2022-11-10T04:07:53.095Z,20.61
2022-11-10T04:09:13.232Z,20.64
2022-11-10T04:10:35.994Z,20.59
2022-11-10T04:12:14.859Z,20.55
2022-11-10T04:13:53.404Z,20.58
2022-11-10T04:15:32.430Z,20.57
2022-11-10T04:16:52.889Z,20.58
2022-11-10T04:18:26.966Z,20.61
2022-11-10T04:19:46.934Z,20.62
2022-11-10T04:21:07.325Z,20.60
2022-11-10T04:22:45.879Z,20.61
2022-11-10T04:24:06.105Z,20.55
2022-11-10T04:25:26.014Z,20.60
2022-11-10T04:26:48.663Z,20.59
2022-11-10T04:28:08.724Z,20.60
2022-11-10T04:29:28.898Z,20.59
2022-11-10T04:30:49.276Z,20.58
2022-11-10T04:32:09.594Z,20.59
2022-11-10T04:33:29.927Z,20.56
2022-11-10T04:34:50.129Z,20.59
2022-11-10T04:36:13.428Z,20.58
2022-11-10T04:37:34.202Z,20.60
2022-11-10T04:38:57.686Z,20.58
2022-11-10T04:40:17.652Z,20.62
2022-11-10T04:41:38.273Z,20.60
2022-11-10T04:42:58.419Z,20.61
2022-11-10T04:44:18.815Z,20.61
2022-11-10T04:45:39.307Z,20.54
2022-11-10T04:47:00.796Z,20.53
2022-11-10T04:48:21.750Z,20.60
2022-11-10T04:49:41.971Z,20.60
2022-11-10T04:51:07.088Z,20.60
2022-11-10T04:52:27.071Z,20.61
2022-11-10T04:53:47.364Z,20.61
2022-11-10T04:55:08.105Z,20.55
2022-11-10T04:56:28.793Z,20.59
2022-11-10T04:57:49.131Z,20.60
2022-11-10T04:59:09.384Z,20.46
2022-11-10T05:00:29.706Z,20.60
2022-11-10T05:01:50.155Z,20.60
2022-11-10T05:03:12.220Z,20.59
2022-11-10T05:04:32.354Z,20.61
2022-11-10T05:05:52.825Z,20.60
2022-11-10T05:07:13.648Z,20.52
2022-11-10T05:08:33.985Z,20.54
2022-11-10T05:09:54.819Z,20.56
2022-11-10T05:11:15.606Z,20.60
2022-11-10T05:12:35.450Z,20.58
2022-11-10T05:13:55.639Z,20.60
2022-11-10T05:15:16.129Z,20.59
2022-11-10T05:16:37.690Z,20.60
2022-11-10T05:17:58.362Z,20.61
2022-11-10T05:19:18.793Z,20.53
2022-11-10T05:20:38.984Z,20.61
2022-11-10T05:21:59.175Z,20.59
2022-11-10T05:23:38.641Z,20.57
2022-11-10T05:24:58.946Z,20.65
2022-11-10T05:26:19.828Z,20.62
2022-11-10T05:27:40.541Z,20.61
2022-11-10T05:29:00.642Z,20.61
2022-11-10T05:30:21.004Z,20.55
2022-11-10T05:31:41.424Z,20.58
2022-11-10T05:33:02.697Z,20.56
2022-11-10T05:34:23.223Z,20.54
2022-11-10T05:35:44.305Z,20.61
2022-11-10T05:37:04.291Z,20.54
2022-11-10T05:38:24.680Z,20.60
2022-11-10T05:39:44.748Z,20.60
2022-11-10T05:41:04.885Z,20.55
2022-11-10T05:42:25.173Z,20.60
2022-11-10T05:43:45.321Z,20.59
2022-11-10T05:45:06.401Z,20.60
2022-11-10T05:46:26.485Z,20.60
2022-11-10T05:47:46.765Z,20.60
2022-11-10T05:49:07.015Z,20.60
2022-11-10T05:50:27.608Z,20.59
2022-11-10T05:51:48.060Z,20.60
2022-11-10T05:53:08.344Z,20.60
2022-11-10T05:54:28.675Z,20.59
2022-11-10T05:55:48.957Z,20.61
2022-11-10T05:57:09.104Z,20.60
2022-11-10T05:58:29.253Z,20.60
2022-11-10T05:59:49.547Z,20.57
2022-11-10T06:01:09.775Z,20.60
2022-11-10T06:02:29.930Z,20.60
2022-11-10T06:03:50.296Z,20.60
2022-11-10T06:05:11.258Z,20.60
2022-11-10T06:06:31.590Z,20.61
2022-11-10T06:07:52.138Z,20.62
2022-11-10T06:09:12.293Z,20.61
2022-11-10T06:10:34.205Z,20.61
2022-11-10T06:11:54.767Z,20.64
2022-11-10T06:13:14.851Z,20.67
2022-11-10T06:14:35.073Z,20.71
2022-11-10T06:15:55.229Z,20.73
2022-11-10T06:17:15.617Z,20.75
2022-11-10T06:18:35.905Z,20.79
2022-11-10T06:19:56.026Z,20.82
2022-11-10T06:21:16.299Z,20.86
2022-11-10T06:22:36.554Z,20.87
2022-11-10T06:23:56.795Z,20.94
2022-11-10T06:25:17.173Z,20.86
2022-11-10T06:26:37.676Z,21.01
2022-11-10T06:27:59.075Z,21.08
2022-11-10T06:29:24.110Z,21.12
2022-11-10T06:30:46.611Z,21.18
2022-11-10T06:32:06.808Z,21.22
2022-11-10T06:33:27.202Z,21.25
2022-11-10T06:34:47.792Z,21.29
2022-11-10T06:36:08.888Z,21.33
2022-11-10T06:37:29.146Z,21.38
2022-11-10T06:38:50.097Z,21.41
2022-11-10T06:40:11.433Z,21.45
2022-11-10T06:41:32.463Z,21.51
2022-11-10T06:42:52.998Z,21.54
2022-11-10T06:44:13.351Z,21.57
2022-11-10T06:45:33.801Z,21.59
2022-11-10T06:46:54.348Z,21.63
2022-11-10T06:48:14.551Z,21.66
2022-11-10T06:49:34.838Z,21.69
2022-11-10T06:50:55.132Z,21.73
2022-11-10T06:52:15.453Z,21.74
2022-11-10T06:53:35.782Z,21.77
2022-11-10T06:54:56.150Z,21.79
2022-11-10T06:56:16.460Z,21.81
2022-11-10T06:57:39.970Z,21.82
2022-11-10T06:59:00.354Z,21.86
2022-11-10T07:00:21.736Z,21.86
2022-11-10T07:01:41.884Z,21.88
2022-11-10T07:03:05.897Z,21.89
2022-11-10T07:04:25.969Z,21.91
2022-11-10T07:05:46.216Z,21.88
2022-11-10T07:07:06.661Z,21.94
2022-11-10T07:08:27.286Z,21.94
2022-11-10T07:09:47.571Z,21.96
2022-11-10T07:11:07.861Z,21.97
2022-11-10T07:12:28.295Z,21.99
2022-11-10T07:13:48.734Z,22.01
2022-11-10T07:15:09.884Z,22.02
2022-11-10T07:16:30.277Z,22.03
2022-11-10T07:17:50.520Z,22.05
2022-11-10T07:19:10.777Z,22.07
2022-11-10T07:20:32.085Z,22.07
2022-11-10T07:21:52.608Z,22.09
2022-11-10T07:23:13.213Z,22.09
2022-11-10T07:24:33.559Z,22.10
2022-11-10T07:25:54.317Z,22.09
2022-11-10T07:27:14.417Z,22.10
2022-11-10T07:28:35.260Z,22.12
2022-11-10T07:29:55.595Z,22.11
2022-11-10T07:31:15.862Z,22.12
2022-11-10T07:32:36.506Z,22.05
2022-11-10T07:33:56.459Z,22.12
2022-11-10T07:35:16.851Z,22.12
2022-11-10T07:36:37.372Z,22.13
2022-11-10T07:38:01.115Z,22.13
2022-11-10T07:39:21.790Z,22.13
2022-11-10T07:40:42.200Z,22.09
2022-11-10T07:42:02.388Z,22.14
2022-11-10T07:43:25.487Z,22.13
2022-11-10T07:44:45.897Z,22.15
2022-11-10T07:46:06.480Z,22.14
2022-11-10T07:47:26.679Z,22.12
2022-11-10T07:48:47.612Z,22.14
2022-11-10T07:50:08.463Z,22.13
2022-11-10T07:51:28.879Z,22.14
2022-11-10T07:52:49.153Z,22.11
2022-11-10T07:54:09.754Z,22.14
2022-11-10T07:55:30.277Z,22.15
2022-11-10T07:56:50.640Z,22.14
2022-11-10T07:58:13.839Z,22.07
2022-11-10T07:59:33.922Z,22.14
2022-11-10T08:00:54.445Z,22.16
2022-11-10T08:02:14.919Z,22.14
2022-11-10T08:03:35.279Z,22.14
2022-11-10T08:04:55.708Z,22.12
2022-11-10T08:06:16.150Z,22.13
2022-11-10T08:07:36.680Z,22.14
2022-11-10T08:08:56.887Z,22.13
2022-11-10T08:10:17.740Z,22.13
2022-11-10T08:11:37.945Z,21.94
2022-11-10T08:13:00.535Z,22.08
2022-11-10T08:14:20.560Z,22.13
2022-11-10T08:15:41.537Z,22.13
2022-11-10T08:17:02.424Z,22.13
2022-11-10T08:18:24.087Z,22.12
2022-11-10T08:19:44.447Z,22.13
2022-11-10T08:21:05.044Z,22.14
2022-11-10T08:22:25.738Z,22.13
2022-11-10T08:23:45.775Z,22.09
2022-11-10T08:25:06.397Z,22.10
2022-11-10T08:26:26.695Z,22.13
2022-11-10T08:27:46.948Z,22.12
2022-11-10T08:29:07.377Z,22.13
2022-11-10T08:30:29.116Z,22.12
2022-11-10T08:31:49.569Z,22.13
2022-11-10T08:33:13.272Z,22.10
2022-11-10T08:34:33.265Z,22.14
2022-11-10T08:35:53.432Z,22.13
2022-11-10T08:37:13.639Z,22.13
2022-11-10T08:38:33.985Z,22.13
2022-11-10T08:39:54.428Z,22.13
2022-11-10T08:41:14.540Z,22.14
2022-11-10T08:42:34.987Z,22.10
2022-11-10T08:43:55.188Z,22.13
2022-11-10T08:45:15.969Z,22.13
2022-11-10T08:46:36.134Z,22.13
2022-11-10T08:48:06.913Z,22.12
2022-11-10T08:49:27.681Z,22.15
2022-11-10T08:50:49.750Z,22.13
2022-11-10T08:52:11.244Z,22.14
2022-11-10T08:53:31.414Z,22.14
2022-11-10T08:54:51.848Z,22.13
2022-11-10T08:56:12.318Z,22.13
2022-11-10T08:57:32.658Z,22.13
2022-11-10T08:58:54.305Z,22.12
2022-11-10T09:00:15.963Z,22.12
2022-11-10T09:01:36.221Z,22.14
2022-11-10T09:03:03.412Z,22.13
2022-11-10T09:04:23.722Z,22.15
2022-11-10T09:05:44.883Z,22.13
2022-11-10T09:07:05.041Z,22.14
2022-11-10T09:08:25.766Z,22.13
2022-11-10T09:10:01.383Z,22.13
2022-11-10T09:11:26.872Z,22.16
2022-11-10T09:12:47.351Z,22.14
2022-11-10T09:14:07.582Z,22.13
2022-11-10T09:15:28.774Z,22.04
2022-11-10T09:16:49.005Z,22.07
2022-11-10T09:18:11.720Z,22.11
2022-11-10T09:19:32.549Z,22.13
2022-11-10T09:20:53.307Z,22.12
2022-11-10T09:22:13.558Z,22.12
2022-11-10T09:23:34.072Z,22.13
2022-11-10T09:24:54.315Z,22.10
2022-11-10T09:26:14.685Z,22.10
2022-11-10T09:27:36.897Z,22.10
2022-11-10T09:28:56.957Z,22.12
2022-11-10T09:30:18.231Z,22.11
2022-11-10T09:31:38.900Z,22.11
2022-11-10T09:33:00.776Z,22.10
2022-11-10T09:34:21.100Z,22.11
2022-11-10T09:35:41.343Z,22.02
2022-11-10T09:37:01.715Z,22.11
2022-11-10T09:38:22.462Z,22.10
2022-11-10T09:39:43.039Z,22.10
2022-11-10T09:41:08.839Z,22.08
2022-11-10T09:42:38.515Z,22.09
2022-11-10T09:44:24.164Z,22.08
2022-11-10T09:45:47.124Z,22.13
2022-11-10T09:47:29.162Z,22.10
2022-11-10T09:49:06.962Z,22.13
2022-11-10T09:50:53.163Z,22.17
2022-11-10T09:52:14.370Z,22.16
2022-11-10T09:53:39.658Z,22.12
2022-11-10T09:55:05.268Z,22.11
2022-11-10T09:56:36.960Z,22.11
2022-11-10T09:57:58.843Z,22.11
2022-11-10T09:59:32.424Z,21.92
2022-11-10T10:01:34.745Z,22.14
2022-11-10T10:03:02.056Z,22.15
2022-11-10T10:04:28.290Z,22.12
2022-11-10T10:05:53.875Z,22.10
2022-11-10T10:07:30.083Z,22.12
2022-11-10T10:09:11.980Z,22.12
2022-11-10T10:10:34.734Z,22.12
2022-11-10T10:12:13.633Z,22.12
2022-11-10T10:13:52.181Z,22.12
2022-11-10T10:15:36.975Z,22.14
2022-11-10T10:17:08.951Z,22.07
2022-11-10T10:18:58.288Z,22.15
2022-11-10T10:20:21.399Z,22.15
2022-11-10T10:22:01.935Z,22.06
2022-11-10T10:24:02.202Z,22.10
2022-11-10T10:25:20.834Z,22.13
2022-11-10T10:26:47.052Z,22.13
2022-11-10T10:28:19.932Z,22.09
2022-11-10T10:29:45.458Z,22.10
2022-11-10T10:31:28.382Z,22.15
2022-11-10T10:32:55.642Z,22.14
2022-11-10T10:34:19.383Z,22.13
2022-11-10T10:35:41.948Z,22.10
2022-11-10T10:37:02.653Z,22.12
2022-11-10T10:38:31.419Z,22.11
2022-11-10T10:39:55.741Z,22.02
2022-11-10T10:41:25.257Z,22.13
2022-11-10T10:42:45.662Z,22.05
2022-11-10T10:44:12.750Z,22.11
2022-11-10T10:45:33.269Z,22.05
2022-11-10T10:46:59.189Z,22.06
2022-11-10T10:48:29.526Z,22.13
2022-11-10T10:49:49.569Z,22.13
2022-11-10T10:51:09.954Z,22.08
2022-11-10T10:52:30.400Z,22.09
2022-11-10T10:53:50.844Z,22.13
2022-11-10T10:55:13.508Z,22.12
2022-11-10T10:56:34.492Z,22.12
2022-11-10T10:58:01.596Z,22.12
2022-11-10T10:59:23.828Z,22.08
2022-11-10T11:00:45.849Z,22.12
2022-11-10T11:02:21.331Z,22.14
2022-11-10T11:03:42.980Z,22.15
2022-11-10T11:05:14.496Z,22.13
2022-11-10T11:06:35.952Z,22.08
2022-11-10T11:07:58.522Z,22.13
2022-11-10T11:09:43.206Z,22.12
2022-11-10T11:11:08.672Z,22.16
2022-11-10T11:12:31.699Z,22.16
2022-11-10T11:13:52.050Z,22.16
2022-11-10T11:15:26.508Z,22.14
2022-11-10T11:17:01.307Z,22.16
2022-11-10T11:18:22.338Z,22.16
2022-11-10T11:19:42.987Z,22.14
2022-11-10T11:21:15.055Z,22.13
2022-11-10T11:22:57.859Z,22.14
2022-11-10T11:24:28.415Z,22.16
2022-11-10T11:25:51.765Z,22.15
2022-11-10T11:27:24.636Z,22.15
2022-11-10T11:29:13.555Z,22.16
2022-11-10T11:31:01.952Z,22.21
2022-11-10T11:32:32.706Z,22.19
2022-11-10T11:34:02.390Z,22.18
2022-11-10T11:35:44.582Z,22.15
2022-11-10T11:37:14.234Z,22.17
2022-11-10T11:39:04.167Z,22.20
2022-11-10T11:40:39.764Z,22.14
2022-11-10T11:42:31.170Z,22.19
2022-11-10T11:44:20.614Z,22.21
2022-11-10T11:45:55.238Z,22.19
2022-11-10T11:47:37.502Z,22.17
2022-11-10T11:49:06.685Z,22.17
2022-11-10T11:50:32.179Z,21.92
2022-11-10T11:52:24.798Z,22.17
2022-11-10T11:54:07.465Z,22.17
2022-11-10T11:55:46.279Z,22.15
2022-11-10T11:57:29.740Z,22.19
2022-11-10T11:59:22.463Z,22.16
2022-11-10T12:00:53.847Z,22.16
2022-11-10T12:02:28.957Z,22.17
2022-11-10T12:04:23.615Z,22.17
2022-11-10T12:06:09.610Z,22.15
2022-11-10T12:07:54.715Z,22.15
2022-11-10T12:09:47.682Z,22.17
2022-11-10T12:11:39.526Z,22.16
2022-11-10T12:13:12.360Z,22.12
2022-11-10T12:14:44.805Z,22.13
2022-11-10T12:16:21.096Z,22.10
2022-11-10T12:17:49.682Z,22.12
2022-11-10T12:19:35.411Z,22.11
2022-11-10T12:21:21.189Z,22.12
2022-11-10T12:23:18.037Z,22.15
2022-11-10T12:25:09.116Z,22.17
2022-11-10T12:26:44.491Z,22.15
2022-11-10T12:28:28.451Z,22.15
2022-11-10T12:29:54.029Z,22.11
2022-11-10T12:31:22.142Z,22.09
2022-11-10T12:32:48.298Z,22.07
2022-11-10T12:34:26.443Z,22.01
2022-11-10T12:35:47.675Z,22.09
2022-11-10T12:37:35.517Z,22.06
2022-11-10T12:39:01.365Z,22.10
2022-11-10T12:40:26.730Z,22.08
2022-11-10T12:41:54.742Z,22.07
2022-11-10T12:43:24.236Z,22.08
2022-11-10T12:45:00.811Z,22.10
2022-11-10T12:46:21.287Z,22.11
2022-11-10T12:47:44.124Z,22.07
2022-11-10T12:49:23.410Z,22.07
2022-11-10T12:50:59.789Z,22.08
2022-11-10T12:52:27.170Z,22.06
2022-11-10T12:53:48.728Z,22.08
2022-11-10T12:55:14.005Z,22.00
2022-11-10T12:56:49.616Z,22.08
2022-11-10T12:58:13.235Z,22.08
2022-11-10T12:59:36.454Z,22.01
2022-11-10T13:01:02.584Z,22.07
2022-11-10T13:02:31.883Z,21.92
2022-11-10T13:03:56.464Z,22.06
2022-11-10T13:05:34.159Z,22.07
2022-11-10T13:07:11.912Z,22.08
2022-11-10T13:08:35.327Z,22.08
2022-11-10T13:10:20.244Z,22.12
2022-11-10T13:11:41.686Z,22.05
2022-11-10T13:13:05.035Z,22.06
2022-11-10T13:14:29.538Z,22.06
2022-11-10T13:15:53.597Z,22.00
2022-11-10T13:17:26.039Z,22.08
2022-11-10T13:18:53.400Z,22.04
2022-11-10T13:20:38.617Z,22.10
2022-11-10T13:22:01.746Z,22.08
2022-11-10T13:23:29.482Z,22.05
2022-11-10T13:24:49.757Z,22.07
2022-11-10T13:26:44.263Z,22.08
2022-11-10T13:28:08.034Z,22.02
2022-11-10T13:29:43.266Z,22.09
2022-11-10T13:31:29.362Z,22.01
2022-11-10T13:32:49.594Z,22.11
2022-11-10T13:34:31.747Z,22.06
2022-11-10T13:35:55.783Z,22.05
2022-11-10T13:37:34.622Z,22.10
2022-11-10T13:38:55.759Z,22.09
2022-11-10T13:40:18.772Z,22.06
2022-11-10T13:41:46.638Z,21.93
2022-11-10T13:43:20.404Z,22.06
2022-11-10T13:44:42.393Z,22.06
2022-11-10T13:46:03.795Z,22.03
2022-11-10T13:47:50.758Z,22.06
2022-11-10T13:49:33.179Z,22.10
2022-11-10T13:51:30.566Z,22.11
2022-11-10T13:53:03.168Z,22.10
2022-11-10T13:54:50.791Z,22.08
2022-11-10T13:56:50.135Z,22.11
2022-11-10T13:58:24.356Z,22.11
2022-11-10T13:59:55.585Z,22.05
2022-11-10T14:01:19.250Z,22.05
2022-11-10T14:02:45.819Z,22.00
2022-11-10T14:04:06.015Z,22.03
2022-11-10T14:05:29.604Z,22.01
2022-11-10T14:06:56.076Z,21.94
2022-11-10T14:08:21.033Z,22.00
2022-11-10T14:09:45.611Z,22.01
2022-11-10T14:11:14.090Z,22.01
2022-11-10T14:12:41.508Z,21.97
2022-11-10T14:14:20.496Z,22.03
2022-11-10T14:15:46.399Z,22.04
2022-11-10T14:17:18.455Z,22.04
2022-11-10T14:18:42.836Z,22.04
2022-11-10T14:20:04.156Z,21.98
2022-11-10T14:21:46.291Z,22.04
2022-11-10T14:23:13.726Z,22.03
2022-11-10T14:24:39.492Z,22.02
2022-11-10T14:26:03.573Z,22.02
2022-11-10T14:27:30.917Z,22.01
2022-11-10T14:28:50.973Z,22.01
2022-11-10T14:30:26.995Z,22.02
2022-11-10T14:31:47.081Z,22.03
2022-11-10T14:33:11.999Z,21.97
2022-11-10T14:34:42.200Z,22.01
2022-11-10T14:36:05.856Z,22.02
2022-11-10T14:37:29.251Z,22.02
2022-11-10T14:38:51.466Z,22.01
2022-11-10T14:40:17.978Z,22.01
2022-11-10T14:41:47.418Z,22.03
2022-11-10T14:43:29.477Z,22.00
2022-11-10T14:44:50.044Z,22.02
2022-11-10T14:46:15.311Z,22.03
2022-11-10T14:47:37.666Z,22.04
2022-11-10T14:48:59.794Z,22.04
2022-11-10T14:50:21.826Z,22.03
2022-11-10T14:51:41.817Z,22.03
2022-11-10T14:53:29.320Z,22.06
2022-11-10T14:54:49.368Z,22.08
2022-11-10T14:56:32.306Z,22.10
2022-11-10T14:58:04.604Z,22.08
2022-11-10T14:59:26.007Z,22.08
2022-11-10T15:00:46.592Z,22.05
2022-11-10T15:02:14.014Z,21.97
2022-11-10T15:03:37.669Z,21.98
2022-11-10T15:04:58.671Z,22.04
2022-11-10T15:06:21.775Z,22.04
2022-11-10T15:07:43.516Z,22.04
2022-11-10T15:09:14.038Z,22.04
2022-11-10T15:10:40.537Z,22.05
2022-11-10T15:12:00.757Z,22.06
2022-11-10T15:13:27.262Z,22.04
2022-11-10T15:14:56.550Z,22.05
2022-11-10T15:16:26.052Z,22.06
2022-11-10T15:17:50.589Z,22.05
2022-11-10T15:19:38.403Z,22.09
2022-11-10T15:21:04.714Z,22.08
2022-11-10T15:22:30.783Z,22.07
2022-11-10T15:23:57.534Z,22.06
2022-11-10T15:25:19.782Z,22.00
2022-11-10T15:26:40.853Z,22.04
2022-11-10T15:28:03.190Z,22.04
2022-11-10T15:29:24.565Z,22.03
2022-11-10T15:30:52.824Z,21.93
2022-11-10T15:32:16.507Z,22.02
2022-11-10T15:33:39.383Z,22.00
2022-11-10T15:35:23.067Z,22.07
2022-11-10T15:36:43.540Z,22.04
2022-11-10T15:38:23.893Z,21.96
2022-11-10T15:39:44.684Z,22.08
2022-11-10T15:41:26.773Z,22.06
2022-11-10T15:43:14.487Z,22.11
2022-11-10T15:44:34.779Z,22.10
2022-11-10T15:45:55.051Z,22.07
2022-11-10T15:47:17.840Z,22.05
2022-11-10T15:48:41.301Z,22.02
2022-11-10T15:50:01.976Z,22.03
2022-11-10T15:51:26.096Z,22.03
2022-11-10T15:52:46.933Z,22.03
2022-11-10T15:54:10.696Z,22.02
2022-11-10T15:55:34.511Z,22.02
2022-11-10T15:56:54.916Z,22.02
2022-11-10T15:58:18.706Z,21.95
2022-11-10T15:59:39.450Z,21.96
2022-11-10T16:01:01.430Z,22.00
2022-11-10T16:02:26.083Z,22.00
2022-11-10T16:03:46.602Z,22.00
2022-11-10T16:05:12.353Z,22.00
2022-11-10T16:06:32.926Z,21.95
2022-11-10T16:07:53.106Z,22.01
2022-11-10T16:09:14.292Z,21.90
2022-11-10T16:10:34.581Z,22.00
2022-11-10T16:11:54.767Z,21.99
2022-11-10T16:13:25.351Z,22.00
2022-11-10T16:14:49.722Z,21.98
2022-11-10T16:16:13.190Z,22.01
2022-11-10T16:17:35.064Z,22.01
2022-11-10T16:18:55.366Z,22.01
2022-11-10T16:20:16.109Z,21.94
2022-11-10T16:21:36.702Z,21.98
2022-11-10T16:22:57.151Z,21.99
2022-11-10T16:24:17.583Z,21.98
2022-11-10T16:25:39.469Z,21.97
2022-11-10T16:26:59.808Z,21.99
2022-11-10T16:28:23.746Z,21.98
2022-11-10T16:29:44.334Z,22.00
2022-11-10T16:31:06.089Z,21.98
2022-11-10T16:32:26.280Z,21.98
2022-11-10T16:33:47.051Z,21.97
2022-11-10T16:35:13.017Z,21.97
2022-11-10T16:36:34.372Z,21.98
2022-11-10T16:37:54.798Z,21.99
2022-11-10T16:39:17.083Z,21.96
2022-11-10T16:40:37.639Z,21.92
2022-11-10T16:41:57.871Z,21.94
2022-11-10T16:43:18.809Z,21.97
2022-11-10T16:44:42.428Z,21.98
2022-11-10T16:46:06.573Z,21.96
2022-11-10T16:47:27.872Z,21.98
2022-11-10T16:48:50.153Z,21.96
2022-11-10T16:50:31.459Z,21.98
2022-11-10T16:51:51.959Z,22.01
2022-11-10T16:53:17.755Z,21.97
2022-11-10T16:54:38.234Z,21.99
2022-11-10T16:55:58.675Z,21.98
2022-11-10T16:57:20.285Z,21.89
2022-11-10T16:58:40.505Z,21.96
2022-11-10T17:00:00.865Z,21.92
2022-11-10T17:01:26.604Z,21.95
2022-11-10T17:02:53.533Z,21.97
2022-11-10T17:04:14.332Z,21.96
2022-11-10T17:05:35.348Z,21.87
2022-11-10T17:06:55.412Z,21.96
2022-11-10T17:08:27.921Z,21.91
2022-11-10T17:09:48.071Z,21.90
2022-11-10T17:11:09.286Z,21.95
2022-11-10T17:12:29.318Z,21.87
2022-11-10T17:13:49.701Z,21.82
2022-11-10T17:15:12.326Z,21.92
2022-11-10T17:16:37.790Z,21.93
2022-11-10T17:18:04.635Z,21.94
2022-11-10T17:19:26.666Z,21.92
2022-11-10T17:20:49.965Z,21.88
2022-11-10T17:22:12.472Z,21.93
2022-11-10T17:23:35.336Z,21.88
2022-11-10T17:24:56.773Z,21.93
2022-11-10T17:26:19.587Z,21.92
2022-11-10T17:27:39.749Z,21.93
2022-11-10T17:29:00.140Z,21.87
2022-11-10T17:30:21.134Z,21.92
2022-11-10T17:31:41.085Z,21.92
2022-11-10T17:33:05.827Z,21.91
2022-11-10T17:34:26.381Z,21.92
2022-11-10T17:35:48.099Z,21.88
2022-11-10T17:37:12.429Z,21.91
2022-11-10T17:38:33.434Z,21.85
2022-11-10T17:39:55.276Z,21.91
2022-11-10T17:41:20.081Z,21.89
2022-11-10T17:42:40.311Z,21.92
2022-11-10T17:44:00.557Z,21.91
2022-11-10T17:45:24.128Z,21.89
2022-11-10T17:46:44.414Z,21.92
2022-11-10T17:48:05.187Z,21.92
2022-11-10T17:49:25.295Z,21.91
2022-11-10T17:50:47.013Z,21.85
2022-11-10T17:52:09.696Z,21.91
2022-11-10T17:53:30.405Z,21.89
2022-11-10T17:54:50.635Z,21.90
2022-11-10T17:56:11.143Z,21.88
2022-11-10T17:57:31.738Z,21.90
2022-11-10T17:58:53.957Z,21.90
2022-11-10T18:00:16.220Z,21.88
2022-11-10T18:01:36.310Z,21.90
2022-11-10T18:02:56.641Z,21.88
2022-11-10T18:04:17.050Z,21.88
2022-11-10T18:05:38.532Z,21.87
2022-11-10T18:06:58.872Z,21.89
2022-11-10T18:08:19.129Z,21.79